Time;durP1;ratioP1;P1;durP2;ratioP2;P2;SDS_P1;SDS_P2;PMS_P1;PMS_P2;Temp;Humidity;BMP_temperature;BMP_pressure;BME280_temperature;BME280_humidity;BME280_pressure;Samples;Min_cycle;Max_cycle;Signal;HPM_P1;HPM_P2
2023/05/29 00:00:54;;;;;;;0.40;0.40;;;;;;;18.47;100.00;99086.00;4970422;28;20201;-63
2023/05/29 00:03:21;;;;;;;0.50;0.50;;;;;;;18.50;100.00;99085.81;4970641;28;20271;-63
2023/05/29 00:05:50;;;;;;;0.40;0.40;;;;;;;18.46;100.00;99070.50;4969735;28;20259;-64
2023/05/29 00:08:16;;;;;;;0.50;0.50;;;;;;;18.48;100.00;99085.03;4969162;28;20299;-63
2023/05/29 00:10:43;;;;;;;0.47;0.47;;;;;;;18.49;100.00;99091.91;4970333;28;20678;-63
2023/05/29 00:13:10;;;;;;;0.53;0.53;;;;;;;18.46;100.00;99097.31;4969914;28;20695;-63
2023/05/29 00:15:36;;;;;;;0.30;0.30;;;;;;;18.49;100.00;99091.91;4970518;28;20221;-64
2023/05/29 00:18:03;;;;;;;0.50;0.50;;;;;;;18.47;100.00;99093.78;4958830;28;20268;-64
2023/05/29 00:20:32;;;;;;;0.30;0.30;;;;;;;18.44;100.00;99082.78;4954602;28;20216;-63
2023/05/29 00:23:01;;;;;;;0.50;0.50;;;;;;;18.40;100.00;99084.75;4958508;28;20208;-64
2023/05/29 00:25:28;;;;;;;0.60;0.60;;;;;;;18.34;100.00;99082.56;4955376;28;20294;-64
2023/05/29 00:27:55;;;;;;;0.60;0.60;;;;;;;18.23;100.00;99078.06;4962555;28;20280;-63
2023/05/29 00:30:22;;;;;;;0.50;0.50;;;;;;;18.18;100.00;99076.72;4956578;28;20700;-64
2023/05/29 00:32:48;;;;;;;0.73;0.73;;;;;;;18.17;100.00;99072.47;4959042;28;20204;-63
2023/05/29 00:35:15;;;;;;;0.40;0.40;;;;;;;18.09;100.00;99066.97;4961925;28;20223;-64
2023/05/29 00:37:42;;;;;;;0.50;0.50;;;;;;;18.03;100.00;99073.34;4954674;28;20655;-64
2023/05/29 00:40:11;;;;;;;0.40;0.40;;;;;;;17.91;100.00;99078.53;4965690;28;20203;-63
2023/05/29 00:42:38;;;;;;;0.50;0.50;;;;;;;17.86;100.00;99078.00;4973726;28;20203;-63
2023/05/29 00:45:06;;;;;;;0.50;0.50;;;;;;;17.80;100.00;99072.25;4973008;28;20638;-63
2023/05/29 00:47:33;;;;;;;0.60;0.60;;;;;;;17.81;100.00;99083.47;4974155;28;20667;-63
2023/05/29 00:49:59;;;;;;;0.50;0.50;;;;;;;17.77;100.00;99077.66;4973589;28;20920;-63
2023/05/29 00:52:27;;;;;;;0.50;0.50;;;;;;;17.76;100.00;99076.00;4972756;28;20206;-64
2023/05/29 00:54:55;;;;;;;0.43;0.43;;;;;;;17.73;100.00;99060.66;4971954;28;20286;-64
2023/05/29 00:57:24;;;;;;;0.50;0.50;;;;;;;17.82;100.00;99072.19;4973339;28;20534;-63
2023/05/29 00:59:51;;;;;;;0.40;0.40;;;;;;;17.86;100.00;99071.06;4972768;28;20212;-63
2023/05/29 01:02:19;;;;;;;0.40;0.40;;;;;;;17.91;100.00;99070.75;4972754;28;20212;-63
2023/05/29 01:04:46;;;;;;;0.50;0.50;;;;;;;17.94;100.00;99076.56;4972840;28;20208;-64
2023/05/29 01:07:13;;;;;;;0.50;0.50;;;;;;;17.95;100.00;99064.44;4972421;28;20258;-64
2023/05/29 01:09:40;;;;;;;0.50;0.50;;;;;;;18.00;100.00;99070.13;4973721;28;20692;-64
2023/05/29 01:12:20;;;;;;;0.50;0.50;;;;;;;18.03;100.00;99064.78;4961165;28;20231;-64
2023/05/29 01:15:01;;;;;;;0.40;0.40;;;;;;;18.07;100.00;99063.63;4961405;28;20216;-63
2023/05/29 01:17:38;;;;;;;0.43;0.43;;;;;;;18.09;100.00;99062.59;4963402;28;20689;-64
2023/05/29 01:20:16;;;;;;;0.67;0.67;;;;;;;18.05;100.00;99061.13;4973494;28;20215;-64
2023/05/29 01:23:09;;;;;;;0.60;0.60;;;;;;;18.08;100.00;99065.28;4970666;28;20696;-63
2023/05/29 01:25:51;;;;;;;0.50;0.50;;;;;;;18.14;100.00;99067.47;4973670;28;20256;-63
2023/05/29 01:28:22;;;;;;;0.40;0.40;;;;;;;18.13;100.00;99068.41;4972641;28;20210;-63
2023/05/29 01:30:51;;;;;;;0.50;0.50;;;;;;;18.16;100.00;99068.19;4973353;28;20209;-63
2023/05/29 01:33:18;;;;;;;0.50;0.50;;;;;;;18.19;100.00;99058.44;4973047;28;20274;-64
2023/05/29 01:35:45;;;;;;;0.43;0.43;;;;;;;18.21;100.00;99058.34;4972924;28;20220;-63
2023/05/29 01:38:12;;;;;;;0.43;0.43;;;;;;;18.24;100.00;99060.75;4973509;28;20266;-64
2023/05/29 01:40:39;;;;;;;0.50;0.50;;;;;;;18.25;100.00;99049.44;4972971;28;20204;-64
2023/05/29 01:43:06;;;;;;;0.50;0.50;;;;;;;18.27;100.00;99050.16;4972687;28;20222;-63
2023/05/29 01:45:36;;;;;;;0.50;0.50;;;;;;;18.21;100.00;99058.34;4972552;28;20298;-63
2023/05/29 01:48:03;;;;;;;0.50;0.50;;;;;;;18.27;100.00;99060.53;4972122;28;20595;-63
2023/05/29 01:50:31;;;;;;;0.40;0.40;;;;;;;18.29;100.00;99063.84;4972858;28;20207;-64
2023/05/29 01:52:58;;;;;;;0.50;0.50;;;;;;;18.29;100.00;99058.66;4973391;28;20629;-63
2023/05/29 01:55:25;;;;;;;0.50;0.50;;;;;;;18.33;100.00;99060.13;4972585;28;20696;-64
2023/05/29 01:57:53;;;;;;;0.40;0.40;;;;;;;18.32;100.00;99063.66;4972812;28;20216;-64
2023/05/29 02:00:20;;;;;;;0.50;0.50;;;;;;;18.31;100.00;99057.66;4972681;28;20207;-64
2023/05/29 02:02:48;;;;;;;0.60;0.60;;;;;;;18.28;100.00;99059.63;4972777;28;20639;-64
2023/05/29 02:05:15;;;;;;;0.80;0.80;;;;;;;18.28;100.00;99064.81;4972133;28;20200;-63
2023/05/29 02:07:42;;;;;;;0.53;0.53;;;;;;;18.26;100.00;99056.28;4971990;28;20203;-63
2023/05/29 02:10:10;;;;;;;0.37;0.37;;;;;;;18.27;100.00;99061.38;4959407;28;20221;-64
2023/05/29 02:12:36;;;;;;;0.70;0.70;;;;;;;18.29;100.00;99063.84;4968132;28;20204;-63
2023/05/29 02:15:03;;;;;;;0.47;0.47;;;;;;;18.28;100.00;99073.44;4971384;28;20751;-63
2023/05/29 02:17:30;;;;;;;0.50;0.50;;;;;;;18.29;100.00;99079.41;4972363;28;20208;-63
2023/05/29 02:19:58;;;;;;;0.40;0.40;;;;;;;18.29;100.00;99077.66;4971919;28;20231;-63
2023/05/29 02:22:25;;;;;;;0.43;0.43;;;;;;;18.29;100.00;99076.81;4971811;28;20217;-63
2023/05/29 02:24:52;;;;;;;0.47;0.47;;;;;;;18.27;100.00;99076.94;4971911;28;20225;-63
2023/05/29 02:27:19;;;;;;;0.60;0.60;;;;;;;18.27;100.00;99076.09;4972761;28;20213;-64
2023/05/29 02:29:45;;;;;;;0.40;0.40;;;;;;;18.24;100.00;99071.13;4970321;28;20211;-64
2023/05/29 02:32:12;;;;;;;0.60;0.60;;;;;;;18.22;100.00;99070.41;4969840;28;20205;-63
2023/05/29 02:34:39;;;;;;;0.70;0.70;;;;;;;18.19;100.00;99068.03;4971982;28;20209;-63
2023/05/29 02:37:08;;;;;;;0.47;0.47;;;;;;;18.18;100.00;99072.38;4971488;28;20700;-63
2023/05/29 02:39:34;;;;;;;0.50;0.50;;;;;;;18.21;100.00;99079.94;4971735;28;20215;-64
2023/05/29 02:42:01;;;;;;;0.80;0.80;;;;;;;18.20;100.00;99069.66;4971611;28;20259;-63
2023/05/29 02:44:28;;;;;;;0.50;0.50;;;;;;;18.18;100.00;99069.78;4967640;28;20215;-64
2023/05/29 02:46:54;;;;;;;0.37;0.37;;;;;;;18.17;100.00;99075.06;4971830;28;20664;-64
2023/05/29 02:49:21;;;;;;;0.50;0.50;;;;;;;18.17;100.00;99075.06;4971259;28;20262;-64
2023/05/29 02:51:48;;;;;;;0.60;0.60;;;;;;;18.17;100.00;99075.06;4971402;28;20268;-64
2023/05/29 02:54:16;;;;;;;0.50;0.50;;;;;;;18.17;100.00;99075.88;4971880;28;20209;-64
2023/05/29 02:56:43;;;;;;;0.60;0.60;;;;;;;18.16;100.00;99078.56;4972115;28;20652;-64
2023/05/29 02:59:09;;;;;;;0.50;0.50;;;;;;;18.16;100.00;99076.81;4971014;28;20205;-64
2023/05/29 03:01:37;;;;;;;0.57;0.57;;;;;;;18.16;100.00;99081.16;4971930;28;20268;-63
2023/05/29 03:04:04;;;;;;;0.43;0.43;;;;;;;18.17;100.00;99082.84;4971472;28;20287;-64
2023/05/29 03:06:32;;;;;;;0.33;0.33;;;;;;;18.18;100.00;99080.16;4971885;28;20676;-64
2023/05/29 03:08:59;;;;;;;0.43;0.43;;;;;;;18.15;100.00;99077.75;4971807;28;20214;-64
2023/05/29 03:11:28;;;;;;;0.50;0.50;;;;;;;18.18;100.00;99082.75;4971098;28;20295;-64
2023/05/29 03:13:55;;;;;;;0.43;0.43;;;;;;;18.19;100.00;99086.97;4974118;28;20560;-63
2023/05/29 03:16:22;;;;;;;0.37;0.37;;;;;;;18.21;100.00;99094.69;4970939;28;20278;-63
2023/05/29 03:18:49;;;;;;;0.70;0.70;;;;;;;18.15;100.00;99082.13;4971475;28;20199;-64
2023/05/29 03:21:17;;;;;;;0.67;0.67;;;;;;;18.17;100.00;99091.44;4970623;28;20226;-63
2023/05/29 03:23:44;;;;;;;0.50;0.50;;;;;;;18.08;100.00;99086.03;4970753;28;20204;-63
2023/05/29 03:26:12;;;;;;;0.50;0.50;;;;;;;18.10;100.00;99104.91;4970874;28;20224;-64
2023/05/29 03:28:40;;;;;;;0.70;0.70;;;;;;;18.07;100.00;99105.97;4971388;28;20292;-64
2023/05/29 03:31:07;;;;;;;0.50;0.50;;;;;;;18.04;100.00;99105.31;4969602;28;20266;-64
2023/05/29 03:33:34;;;;;;;0.50;0.50;;;;;;;18.01;100.00;99105.53;4970531;28;20262;-64
2023/05/29 03:36:01;;;;;;;0.60;0.60;;;;;;;18.01;100.00;99110.72;4971301;28;20223;-64
2023/05/29 03:38:28;;;;;;;0.40;0.40;;;;;;;17.95;100.00;99090.38;4968267;28;20655;-64
2023/05/29 03:40:55;;;;;;;0.40;0.40;;;;;;;18.03;100.00;99114.06;4968674;28;20205;-64
2023/05/29 03:43:22;;;;;;;0.60;0.60;;;;;;;18.00;100.00;99101.25;4970210;28;20700;-63
2023/05/29 03:45:50;;;;;;;0.37;0.37;;;;;;;17.99;100.00;99116.00;4970953;28;20258;-63
2023/05/29 03:48:17;;;;;;;0.50;0.50;;;;;;;17.95;100.00;99113.72;4970390;28;20207;-63
2023/05/29 03:50:43;;;;;;;0.50;0.50;;;;;;;17.90;100.00;99113.19;4971097;28;20666;-65
2023/05/29 03:53:10;;;;;;;0.50;0.50;;;;;;;17.80;100.00;99108.56;4970408;28;20635;-63
2023/05/29 03:55:37;;;;;;;0.53;0.53;;;;;;;17.77;100.00;99106.16;4971230;28;20763;-63
2023/05/29 03:58:04;;;;;;;0.50;0.50;;;;;;;17.75;100.00;99115.81;4970104;28;20219;-64
2023/05/29 04:00:30;;;;;;;0.60;0.60;;;;;;;17.76;100.00;99112.31;4970232;28;20214;-64
2023/05/29 04:02:59;;;;;;;0.40;0.40;;;;;;;17.72;100.00;99110.84;4970651;28;20204;-64
2023/05/29 04:05:25;;;;;;;0.50;0.50;;;;;;;17.63;100.00;99114.03;4970167;28;20203;-64
2023/05/29 04:07:53;;;;;;;0.43;0.43;;;;;;;17.57;100.00;99117.00;4971037;28;20633;-63
2023/05/29 04:10:20;;;;;;;0.40;0.40;;;;;;;17.52;100.00;99116.41;4970102;28;20208;-63
2023/05/29 04:12:47;;;;;;;0.60;0.60;;;;;;;17.47;100.00;99115.88;4973232;28;20258;-63
2023/05/29 04:15:14;;;;;;;0.57;0.57;;;;;;;17.36;100.00;99105.34;4975112;28;20207;-64
2023/05/29 04:17:40;;;;;;;0.40;0.40;;;;;;;17.46;100.00;99121.97;4966638;28;20282;-63
2023/05/29 04:20:10;;;;;;;0.60;0.60;;;;;;;17.47;100.00;99130.59;4969268;28;20584;-64
2023/05/29 04:22:37;;;;;;;0.53;0.53;;;;;;;17.49;100.00;99129.56;4973681;28;20207;-64
2023/05/29 04:25:05;;;;;;;0.50;0.50;;;;;;;17.50;100.00;99125.22;4964778;28;20294;-64
2023/05/29 04:27:32;;;;;;;0.70;0.70;;;;;;;17.48;100.00;99127.88;4956791;28;20692;-64
2023/05/29 04:29:59;;;;;;;0.63;0.63;;;;;;;17.56;100.00;99138.66;4961996;28;20857;-64
2023/05/29 04:32:26;;;;;;;0.40;0.40;;;;;;;17.62;100.00;99137.44;4955869;28;20207;-63
2023/05/29 04:34:53;;;;;;;0.40;0.40;;;;;;;17.71;100.00;99147.22;4956338;28;20232;-63
2023/05/29 04:37:29;;;;;;;0.37;0.37;;;;;;;17.77;100.00;99139.88;4955028;28;20231;-64
2023/05/29 04:39:56;;;;;;;0.67;0.67;;;;;;;17.81;100.00;99140.50;4958522;28;20218;-63
2023/05/29 04:42:24;;;;;;;0.40;0.40;;;;;;;17.89;100.00;99148.66;4955106;28;20240;-64
2023/05/29 04:44:52;;;;;;;0.57;0.57;;;;;;;17.95;100.00;99148.25;4954918;28;20202;-64
2023/05/29 04:47:19;;;;;;;0.50;0.50;;;;;;;18.01;100.00;99157.41;4955265;28;20557;-63
2023/05/29 04:49:48;;;;;;;0.50;0.50;;;;;;;18.08;100.00;99158.69;4957956;28;20739;-63
2023/05/29 04:52:16;;;;;;;0.50;0.50;;;;;;;18.04;100.00;99157.19;4954813;28;20213;-64
2023/05/29 04:54:44;;;;;;;0.57;0.57;;;;;;;18.04;100.00;99152.00;4954284;28;20308;-63
2023/05/29 04:57:11;;;;;;;0.50;0.50;;;;;;;18.03;100.00;99150.38;4954614;28;20279;-63
2023/05/29 04:59:38;;;;;;;0.50;0.50;;;;;;;18.02;100.00;99159.91;4954636;28;20204;-64
2023/05/29 05:02:05;;;;;;;0.40;0.40;;;;;;;18.01;100.00;99160.00;4954678;28;20569;-64
2023/05/29 05:04:32;;;;;;;0.43;0.43;;;;;;;18.06;100.00;99165.75;4955124;28;20201;-64
2023/05/29 05:06:59;;;;;;;0.80;0.80;;;;;;;18.05;100.00;99166.66;4954752;28;20557;-64
2023/05/29 05:09:26;;;;;;;0.47;0.47;;;;;;;18.09;100.00;99178.50;4960004;28;20209;-63
2023/05/29 05:11:54;;;;;;;0.60;0.60;;;;;;;18.11;100.00;99164.50;4954776;28;20315;-63
2023/05/29 05:14:21;;;;;;;0.40;0.40;;;;;;;18.12;100.00;99165.34;4953808;28;20213;-63
2023/05/29 05:16:48;;;;;;;0.40;0.40;;;;;;;18.11;100.00;99168.84;4951833;28;20214;-63
2023/05/29 05:19:15;;;;;;;0.40;0.40;;;;;;;18.13;100.00;99174.75;4954430;28;20666;-64
2023/05/29 05:21:41;;;;;;;0.50;0.50;;;;;;;18.13;100.00;99173.00;4952523;28;20201;-63
2023/05/29 05:24:08;;;;;;;0.60;0.60;;;;;;;18.16;100.00;99183.19;4954525;28;20200;-63
2023/05/29 05:26:35;;;;;;;1.20;1.20;;;;;;;18.20;100.00;99173.44;4952067;28;20577;-65
2023/05/29 05:29:03;;;;;;;0.43;0.43;;;;;;;18.25;100.00;99179.19;4952132;28;20206;-65
2023/05/29 05:31:30;;;;;;;0.40;0.40;;;;;;;18.29;100.00;99186.66;4954194;28;20272;-64
2023/05/29 05:33:56;;;;;;;0.40;0.40;;;;;;;18.35;100.00;99191.44;4954420;28;20253;-64
2023/05/29 05:36:23;;;;;;;0.60;0.60;;;;;;;18.39;100.00;99189.47;4955298;28;20228;-64
2023/05/29 05:38:50;;;;;;;0.40;0.40;;;;;;;18.36;100.00;99190.50;4951168;28;20209;-64
2023/05/29 05:41:17;;;;;;;0.90;0.90;;;;;;;18.31;100.00;99191.75;4955128;28;20239;-65
2023/05/29 05:43:44;;;;;;;0.60;0.60;;;;;;;18.31;100.00;99192.59;4953767;28;20666;-65
2023/05/29 05:46:12;;;;;;;0.40;0.40;;;;;;;18.29;100.00;99194.44;4955495;28;20209;-65
2023/05/29 05:48:40;;;;;;;0.60;0.60;;;;;;;18.31;100.00;99190.00;4953705;28;20208;-64
2023/05/29 05:51:07;;;;;;;0.70;0.70;;;;;;;18.27;100.00;99192.88;4955312;28;20273;-64
2023/05/29 05:53:33;;;;;;;0.33;0.33;;;;;;;18.27;100.00;99198.06;4956330;28;20715;-64
2023/05/29 05:56:00;;;;;;;0.60;0.60;;;;;;;18.20;100.00;99189.84;4952876;28;20210;-65
2023/05/29 05:58:27;;;;;;;0.60;0.60;;;;;;;18.28;100.00;99194.56;4949576;28;20203;-64
2023/05/29 06:00:54;;;;;;;0.70;0.70;;;;;;;18.30;100.00;99190.91;4953999;28;20671;-64
2023/05/29 06:03:22;;;;;;;0.40;0.40;;;;;;;18.34;100.00;99201.94;4952198;29;20732;-65
2023/05/29 06:05:50;;;;;;;0.43;0.43;;;;;;;18.34;100.00;99197.59;4951903;29;20639;-64
2023/05/29 06:08:17;;;;;;;0.47;0.47;;;;;;;18.39;100.00;99197.25;4952895;29;20202;-64
2023/05/29 06:10:44;;;;;;;0.43;0.43;;;;;;;18.47;100.00;99199.38;4952360;28;20717;-65
2023/05/29 06:13:11;;;;;;;0.50;0.50;;;;;;;18.56;100.00;99186.66;4952646;29;20977;-64
2023/05/29 06:15:38;;;;;;;0.50;0.50;;;;;;;18.69;100.00;99199.66;4950840;29;20218;-64
2023/05/29 06:18:05;;;;;;;0.30;0.30;;;;;;;18.75;100.00;99197.47;4952624;29;20231;-64
2023/05/29 06:20:33;;;;;;;0.33;0.33;;;;;;;18.80;100.00;99194.59;4952794;29;20228;-64
2023/05/29 06:23:00;;;;;;;0.40;0.40;;;;;;;18.88;100.00;99202.69;4951222;29;20757;-65
2023/05/29 06:25:32;;;;;;;0.50;0.50;;;;;;;19.01;100.00;99207.88;4956447;28;20717;-64
2023/05/29 06:27:59;;;;;;;0.50;0.50;;;;;;;19.10;100.00;99202.88;4953509;28;20269;-65
2023/05/29 06:30:26;;;;;;;0.30;0.30;;;;;;;19.27;100.00;99193.94;4960024;28;20215;-65
2023/05/29 06:32:53;;;;;;;0.60;0.60;;;;;;;19.49;100.00;99203.72;4960906;28;20202;-64
2023/05/29 06:35:20;;;;;;;0.50;0.50;;;;;;;19.61;100.00;99203.69;4951802;28;20676;-66
2023/05/29 06:37:48;;;;;;;1.03;1.03;;;;;;;19.70;100.00;99202.22;4954795;28;20237;-61
2023/05/29 06:40:15;;;;;;;0.67;0.50;;;;;;;19.87;100.00;99200.06;4953518;28;20266;-64
2023/05/29 06:42:44;;;;;;;0.40;0.40;;;;;;;20.29;100.00;99211.00;4956436;28;20239;-64
2023/05/29 06:45:13;;;;;;;0.57;0.57;;;;;;;20.70;100.00;99207.94;4958352;28;20219;-64
2023/05/29 06:47:40;;;;;;;0.40;0.40;;;;;;;21.05;100.00;99219.13;4956837;28;20263;-65
2023/05/29 06:50:07;;;;;;;0.53;0.53;;;;;;;21.29;100.00;99211.25;4956388;28;20740;-64
2023/05/29 06:52:34;;;;;;;0.40;0.40;;;;;;;21.47;100.00;99215.03;4959330;28;20623;-65
2023/05/29 06:55:02;;;;;;;0.47;0.47;;;;;;;21.46;100.00;99215.97;4958421;28;20724;-64
2023/05/29 06:57:29;;;;;;;0.50;0.50;;;;;;;21.45;100.00;99224.78;4958334;28;20223;-66
2023/05/29 06:59:56;;;;;;;0.50;0.50;;;;;;;21.48;100.00;99214.09;4955459;28;20223;-66
2023/05/29 07:02:23;;;;;;;0.40;0.40;;;;;;;21.52;100.00;99218.09;4959382;28;20299;-67
2023/05/29 07:04:50;;;;;;;0.40;0.40;;;;;;;21.34;100.00;99209.94;4956569;28;20203;-67
2023/05/29 07:07:17;;;;;;;0.57;0.57;;;;;;;21.33;100.00;99215.28;4952789;28;20723;-69
2023/05/29 07:09:44;;;;;;;0.60;0.60;;;;;;;21.25;100.00;99218.50;4956633;28;20212;-67
2023/05/29 07:12:12;;;;;;;0.77;0.77;;;;;;;21.25;100.00;99215.88;4951561;28;20216;-67
2023/05/29 07:14:39;;;;;;;0.40;0.40;;;;;;;21.18;100.00;99219.91;4956360;28;20660;-66
2023/05/29 07:17:06;;;;;;;0.57;0.57;;;;;;;21.15;100.00;99221.91;4959452;28;20282;-67
2023/05/29 07:19:33;;;;;;;0.40;0.40;;;;;;;21.14;100.00;99220.22;4963470;28;20295;-66
2023/05/29 07:22:00;;;;;;;0.40;0.40;;;;;;;21.19;100.00;99212.91;4953717;28;20204;-68
2023/05/29 07:24:27;;;;;;;0.40;0.40;;;;;;;21.34;100.00;99216.94;4956436;28;20306;-68
2023/05/29 07:26:55;;;;;;;0.60;0.60;;;;;;;21.42;100.00;99217.19;4971607;28;20711;-67
2023/05/29 07:29:23;;;;;;;0.50;0.50;;;;;;;21.55;100.00;99220.47;4972291;28;20211;-68
2023/05/29 07:31:50;;;;;;;0.40;0.40;;;;;;;21.69;100.00;99227.22;4970946;28;20290;-66
2023/05/29 07:34:17;;;;;;;0.60;0.60;;;;;;;21.75;100.00;99222.38;4970323;28;20211;-65
2023/05/29 07:36:58;;;;;;;0.73;0.73;;;;;;;21.67;100.00;99219.53;4971006;28;20219;-65
2023/05/29 07:39:25;;;;;;;0.40;0.40;;;;;;;21.70;100.00;99223.69;4970911;28;20293;-65
2023/05/29 07:41:52;;;;;;;0.87;0.87;;;;;;;21.79;100.00;99223.78;4973104;28;20225;-66
2023/05/29 07:44:19;;;;;;;0.40;0.40;;;;;;;21.90;100.00;99225.59;4971039;28;20221;-66
2023/05/29 07:46:47;;;;;;;0.40;0.40;;;;;;;22.01;100.00;99222.09;4973784;28;20211;-66
2023/05/29 07:49:14;;;;;;;0.37;0.37;;;;;;;22.20;100.00;99219.69;4970855;28;20207;-65
2023/05/29 07:51:41;;;;;;;0.53;0.53;;;;;;;22.65;100.00;99221.16;4970859;28;20199;-65
2023/05/29 07:54:08;;;;;;;0.40;0.40;;;;;;;22.92;100.00;99224.13;4971718;28;20670;-66
2023/05/29 07:56:35;;;;;;;0.40;0.40;;;;;;;23.01;100.00;99230.38;4970641;28;20223;-65
2023/05/29 07:59:03;;;;;;;0.40;0.40;;;;;;;23.08;100.00;99233.31;4970740;28;20294;-65
2023/05/29 08:01:29;;;;;;;0.40;0.40;;;;;;;23.11;100.00;99226.03;4970940;28;20230;-65
2023/05/29 08:03:58;;;;;;;0.30;0.30;;;;;;;23.11;96.66;99230.44;4970891;28;20255;-65
2023/05/29 08:06:24;;;;;;;0.20;0.20;;;;;;;23.04;94.59;99237.94;4970593;28;20774;-65
2023/05/29 08:08:51;;;;;;;0.30;0.30;;;;;;;23.00;97.01;99229.53;4971078;28;20215;-65
2023/05/29 08:11:19;;;;;;;0.20;0.20;;;;;;;23.02;94.82;99232.88;4970380;28;20211;-65
2023/05/29 08:13:46;;;;;;;0.73;0.73;;;;;;;22.93;95.98;99228.41;4970392;28;20212;-65
2023/05/29 08:16:14;;;;;;;0.60;0.60;;;;;;;22.94;93.25;99224.81;4969870;28;20294;-65
2023/05/29 08:18:40;;;;;;;0.50;0.50;;;;;;;23.01;97.51;99225.97;4969223;28;20219;-66
2023/05/29 08:21:10;;;;;;;0.37;0.37;;;;;;;22.87;95.04;99218.47;4970230;28;20274;-65
2023/05/29 08:23:36;;;;;;;0.47;0.47;;;;;;;22.78;92.25;99223.63;4972307;28;20214;-66
2023/05/29 08:26:03;;;;;;;0.50;0.50;;;;;;;22.70;93.57;99228.66;4972668;28;20243;-65
2023/05/29 08:28:30;;;;;;;0.37;0.37;;;;;;;22.75;94.67;99218.63;4971237;28;20195;-65
2023/05/29 08:30:57;;;;;;;0.37;0.37;;;;;;;22.76;93.45;99218.53;4969069;28;20639;-65
2023/05/29 08:33:23;;;;;;;0.67;0.67;;;;;;;22.73;94.71;99221.41;4969990;28;20207;-66
2023/05/29 08:35:50;;;;;;;0.20;0.20;;;;;;;22.71;92.82;99223.31;4970919;28;20203;-65
2023/05/29 08:38:20;;;;;;;0.47;0.47;;;;;;;;;;4970217;28;20226;-64
2023/05/29 08:40:48;;;;;;;0.50;0.50;;;;;;;22.66;94.27;99224.63;4968967;28;20242;-65
2023/05/29 08:43:18;;;;;;;0.50;0.50;;;;;;;22.67;92.92;99221.06;4969862;28;20232;-66
2023/05/29 08:45:46;;;;;;;0.40;0.40;;;;;;;22.70;93.24;99213.81;4968078;28;20215;-63
2023/05/29 08:48:13;;;;;;;0.40;0.40;;;;;;;22.79;94.88;99210.44;4969935;28;20572;-63
2023/05/29 08:50:45;;;;;;;0.93;0.93;;;;;;;22.79;93.80;99199.97;4969889;28;20639;-62
2023/05/29 08:53:12;;;;;;;0.50;0.50;;;;;;;22.69;92.88;99188.63;4969227;28;20294;-62
2023/05/29 08:55:41;;;;;;;0.40;0.40;;;;;;;22.86;92.54;99201.13;4970032;28;20263;-63
2023/05/29 08:58:09;;;;;;;0.40;0.40;;;;;;;22.78;90.55;99207.97;4971604;28;20232;-62
2023/05/29 09:00:36;;;;;;;0.33;0.33;;;;;;;22.83;92.58;99205.78;4973088;28;20290;-63
2023/05/29 09:03:04;;;;;;;0.40;0.40;;;;;;;22.85;93.31;99209.91;4973696;28;20210;-62
2023/05/29 09:05:30;;;;;;;0.33;0.33;;;;;;;22.82;92.09;99198.88;4973513;28;20626;-63
2023/05/29 09:07:57;;;;;;;0.30;0.30;;;;;;;22.74;91.83;99204.78;4974299;28;20202;-63
2023/05/29 09:10:25;;;;;;;0.40;0.40;;;;;;;22.73;95.75;99200.50;4973609;28;20616;-62
2023/05/29 09:12:56;;;;;;;0.50;0.50;;;;;;;22.71;94.27;99199.81;4973941;28;20231;-63
2023/05/29 09:15:24;;;;;;;0.60;0.60;;;;;;;22.64;93.49;99201.22;4973395;28;20704;-66
2023/05/29 09:17:52;;;;;;;0.30;0.30;;;;;;;22.55;93.70;99188.94;4974015;28;20827;-66
2023/05/29 09:20:23;;;;;;;0.30;0.30;;;;;;;22.67;95.62;99200.16;4972615;28;20310;-65
2023/05/29 09:22:57;;;;;;;0.40;0.40;;;;;;;22.73;92.42;99200.50;4973230;28;20211;-65
2023/05/29 09:25:24;;;;;;;0.50;0.50;;;;;;;22.79;93.57;99194.75;4972612;28;20731;-65
2023/05/29 09:27:59;;;;;;;0.50;0.50;;;;;;;22.84;92.85;99191.75;4973369;28;20263;-63
2023/05/29 09:30:33;;;;;;;0.30;0.30;;;;;;;22.92;93.55;99190.16;4972957;28;20210;-64
2023/05/29 09:33:01;;;;;;;0.47;0.47;;;;;;;22.94;92.84;99203.91;4975272;28;20202;-63
2023/05/29 09:35:34;;;;;;;0.40;0.40;;;;;;;22.88;93.97;99187.91;4972751;28;20207;-63
2023/05/29 09:38:01;;;;;;;0.50;0.50;;;;;;;23.00;93.47;99203.38;4973767;28;20223;-63
2023/05/29 09:40:30;;;;;;;0.30;0.30;;;;;;;22.93;92.11;99197.03;4971145;28;20250;-63
2023/05/29 09:43:04;;;;;;;0.40;0.40;;;;;;;23.08;95.77;99197.53;4972985;28;20671;-63
2023/05/29 09:45:32;;;;;;;0.40;0.40;;;;;;;23.10;92.96;99203.47;4972580;28;20302;-63
2023/05/29 09:47:59;;;;;;;0.20;0.20;;;;;;;23.17;94.55;99193.28;4973010;28;20307;-63
2023/05/29 09:50:26;;;;;;;0.40;0.40;;;;;;;23.19;95.43;99199.25;4971589;28;20801;-64
2023/05/29 09:52:54;;;;;;;0.30;0.30;;;;;;;23.24;93.74;99192.66;4973686;28;20667;-64
2023/05/29 09:55:21;;;;;;;0.30;0.30;;;;;;;23.24;90.27;99194.44;4971386;28;20226;-65
2023/05/29 09:57:49;;;;;;;0.40;0.40;;;;;;;23.27;92.68;99184.53;4972436;28;21846;-65
2023/05/29 10:00:19;;;;;;;0.30;0.30;;;;;;;23.35;89.00;99183.88;4972336;28;20270;-65
2023/05/29 10:02:47;;;;;;;0.43;0.43;;;;;;;23.46;94.25;99178.56;4972130;28;20204;-65
2023/05/29 10:05:15;;;;;;;0.20;0.20;;;;;;;23.54;90.67;99181.38;4972227;28;20219;-65
2023/05/29 10:07:46;;;;;;;0.50;0.50;;;;;;;23.61;87.40;99177.25;4970249;28;20287;-64
2023/05/29 10:10:14;;;;;;;0.40;0.40;;;;;;;23.81;89.50;99173.69;4968773;28;20211;-64
2023/05/29 10:12:45;;;;;;;0.30;0.30;;;;;;;23.97;91.19;99174.00;4970828;28;20292;-65
2023/05/29 10:15:14;;;;;;;0.43;0.43;;;;;;;23.92;86.37;99175.38;4970875;28;20207;-64
2023/05/29 10:17:52;;;;;;;0.30;0.30;;;;;;;23.99;89.26;99169.47;4970044;28;20228;-64
2023/05/29 10:20:22;;;;;;;0.57;0.57;;;;;;;24.01;86.54;99171.94;4971063;28;20294;-64
2023/05/29 10:22:51;;;;;;;0.37;0.37;;;;;;;24.09;87.31;99171.28;4971425;28;20243;-65
2023/05/29 10:25:20;;;;;;;0.40;0.40;;;;;;;24.08;86.18;99174.84;4971309;28;20706;-65
2023/05/29 10:27:47;;;;;;;0.40;0.40;;;;;;;24.12;83.54;99171.84;4966846;28;20351;-65
2023/05/29 10:30:26;;;;;;;0.43;0.43;;;;;;;24.17;83.07;99169.63;4972275;28;20208;-65
2023/05/29 10:33:26;;;;;;;0.30;0.30;;;;;;;24.29;85.08;99163.31;4971173;28;20686;-64
2023/05/29 10:36:01;;;;;;;0.40;0.40;;;;;;;24.44;86.26;99161.09;4970649;28;20203;-65
2023/05/29 10:38:28;;;;;;;0.63;0.63;;;;;;;24.55;85.27;99142.59;4971868;28;20235;-64
2023/05/29 10:40:56;;;;;;;1.80;0.33;;;;;;;24.71;83.80;99153.34;4971455;28;20299;-65
2023/05/29 10:43:32;;;;;;;0.40;0.40;;;;;;;25.01;84.51;99144.44;4971942;28;20870;-64
2023/05/29 10:46:00;;;;;;;0.47;0.47;;;;;;;25.22;86.60;99141.59;4968173;28;20452;-64
2023/05/29 10:48:54;;;;;;;0.20;0.20;;;;;;;25.33;81.80;99144.03;4971478;28;20214;-64
2023/05/29 10:51:31;;;;;;;0.33;0.33;;;;;;;25.45;80.52;99148.13;4953314;28;20203;-65
2023/05/29 10:53:58;;;;;;;0.30;0.30;;;;;;;25.36;72.45;99143.75;4970766;28;20747;-64
2023/05/29 10:56:29;;;;;;;0.30;0.30;;;;;;;25.48;73.31;99150.44;4971380;28;20211;-64
2023/05/29 10:59:00;;;;;;;0.30;0.30;;;;;;;25.48;76.42;99142.56;4971253;28;20256;-64
2023/05/29 11:01:29;;;;;;;0.40;0.40;;;;;;;25.58;78.25;99138.13;4971129;28;20199;-65
2023/05/29 11:04:27;;;;;;;0.30;0.30;;;;;;;25.56;75.64;99134.81;4969572;28;20199;-65
2023/05/29 11:06:54;;;;;;;1.33;0.30;;;;;;;25.55;77.30;99148.94;4970373;28;20207;-65
2023/05/29 11:09:34;;;;;;;0.40;0.40;;;;;;;25.61;79.28;99135.22;4970951;28;20213;-65
2023/05/29 11:12:23;;;;;;;0.40;0.40;;;;;;;25.71;79.95;99141.22;4971210;28;20206;-64
2023/05/29 11:14:56;;;;;;;0.30;0.30;;;;;;;25.98;79.29;99141.16;4973105;28;20210;-64
2023/05/29 11:17:31;;;;;;;0.20;0.20;;;;;;;26.15;74.33;99142.13;4969486;28;20643;-65
2023/05/29 11:20:02;;;;;;;0.30;0.30;;;;;;;26.24;72.70;99145.69;4971368;28;21226;-65
2023/05/29 11:22:54;;;;;;;0.30;0.30;;;;;;;26.27;74.41;99145.41;4971418;28;20306;-65
2023/05/29 11:25:22;;;;;;;0.40;0.40;;;;;;;26.31;72.76;99151.97;4971108;28;20234;-65
2023/05/29 11:27:51;;;;;;;0.27;0.27;;;;;;;26.40;71.58;99144.00;4971576;28;20291;-65
2023/05/29 11:30:19;;;;;;;0.13;0.13;;;;;;;26.48;75.20;99143.25;4970093;28;20215;-65
2023/05/29 11:32:47;;;;;;;0.30;0.30;;;;;;;26.55;70.97;99145.13;4970926;28;20266;-65
2023/05/29 11:35:16;;;;;;;0.40;0.40;;;;;;;26.67;71.03;99137.81;4972958;28;20275;-65